sensor_id;sensor_type;location;lat;lon;timestamp;P1;durP1;ratioP1;P2;durP2;ratioP2
65924;SDS011;66010;52.084;5.412;2023-05-10T00:01:42;22.85;;;12.60;;
65924;SDS011;66010;52.084;5.412;2023-05-10T00:04:08;23.17;;;11.98;;
65924;SDS011;66010;52.084;5.412;2023-05-10T00:06:35;22.95;;;12.50;;
65924;SDS011;66010;52.084;5.412;2023-05-10T00:09:01;22.27;;;11.90;;
65924;SDS011;66010;52.084;5.412;2023-05-10T00:11:29;24.40;;;12.95;;
65924;SDS011;66010;52.084;5.412;2023-05-10T00:13:55;24.48;;;12.80;;
65924;SDS011;66010;52.084;5.412;2023-05-10T00:16:22;17.80;;;9.95;;
65924;SDS011;66010;52.084;5.412;2023-05-10T00:18:48;22.92;;;11.57;;
65924;SDS011;66010;52.084;5.412;2023-05-10T00:21:15;23.27;;;12.57;;
65924;SDS011;66010;52.084;5.412;2023-05-10T00:23:41;21.27;;;12.23;;
65924;SDS011;66010;52.084;5.412;2023-05-10T00:26:08;23.55;;;12.13;;
65924;SDS011;66010;52.084;5.412;2023-05-10T00:28:36;26.10;;;14.25;;
65924;SDS011;66010;52.084;5.412;2023-05-10T00:31:03;25.08;;;13.50;;
65924;SDS011;66010;52.084;5.412;2023-05-10T00:33:29;19.42;;;9.85;;
65924;SDS011;66010;52.084;5.412;2023-05-10T00:35:56;22.67;;;12.13;;
65924;SDS011;66010;52.084;5.412;2023-05-10T00:38:22;20.25;;;11.70;;
65924;SDS011;66010;52.084;5.412;2023-05-10T00:40:49;26.02;;;14.02;;
65924;SDS011;66010;52.084;5.412;2023-05-10T00:43:23;23.42;;;11.48;;
65924;SDS011;66010;52.084;5.412;2023-05-10T00:45:50;23.77;;;12.02;;
65924;SDS011;66010;52.084;5.412;2023-05-10T00:48:16;23.08;;;11.70;;
65924;SDS011;66010;52.084;5.412;2023-05-10T00:50:43;31.30;;;12.93;;
65924;SDS011;66010;52.084;5.412;2023-05-10T00:53:11;28.70;;;14.35;;
65924;SDS011;66010;52.084;5.412;2023-05-10T00:55:38;22.77;;;11.88;;
65924;SDS011;66010;52.084;5.412;2023-05-10T00:58:04;23.77;;;12.48;;
65924;SDS011;66010;52.084;5.412;2023-05-10T01:00:32;28.33;;;14.27;;
65924;SDS011;66010;52.084;5.412;2023-05-10T01:02:59;21.55;;;11.10;;
65924;SDS011;66010;52.084;5.412;2023-05-10T01:05:26;21.40;;;11.27;;
65924;SDS011;66010;52.084;5.412;2023-05-10T01:10:20;22.95;;;12.35;;
65924;SDS011;66010;52.084;5.412;2023-05-10T01:12:46;27.00;;;14.60;;
65924;SDS011;66010;52.084;5.412;2023-05-10T01:15:14;19.77;;;10.07;;
65924;SDS011;66010;52.084;5.412;2023-05-10T01:17:42;29.88;;;14.80;;
65924;SDS011;66010;52.084;5.412;2023-05-10T01:20:09;23.75;;;12.48;;
65924;SDS011;66010;52.084;5.412;2023-05-10T01:22:50;26.25;;;13.93;;
65924;SDS011;66010;52.084;5.412;2023-05-10T01:35:45;30.67;;;12.88;;
65924;SDS011;66010;52.084;5.412;2023-05-10T01:38:22;24.85;;;12.32;;
65924;SDS011;66010;52.084;5.412;2023-05-10T01:41:00;22.83;;;12.13;;
65924;SDS011;66010;52.084;5.412;2023-05-10T01:43:33;24.20;;;12.82;;
65924;SDS011;66010;52.084;5.412;2023-05-10T01:48:27;23.65;;;11.88;;
65924;SDS011;66010;52.084;5.412;2023-05-10T01:50:54;28.85;;;13.77;;
65924;SDS011;66010;52.084;5.412;2023-05-10T01:53:21;26.67;;;13.55;;
65924;SDS011;66010;52.084;5.412;2023-05-10T01:55:49;23.88;;;12.15;;
65924;SDS011;66010;52.084;5.412;2023-05-10T01:58:18;27.35;;;13.55;;
65924;SDS011;66010;52.084;5.412;2023-05-10T02:00:45;24.95;;;12.52;;
65924;SDS011;66010;52.084;5.412;2023-05-10T02:03:13;23.45;;;11.98;;
65924;SDS011;66010;52.084;5.412;2023-05-10T02:05:41;26.83;;;13.77;;
65924;SDS011;66010;52.084;5.412;2023-05-10T02:08:11;28.17;;;14.32;;
65924;SDS011;66010;52.084;5.412;2023-05-10T02:10:39;27.33;;;13.00;;
65924;SDS011;66010;52.084;5.412;2023-05-10T02:13:07;31.63;;;15.13;;
65924;SDS011;66010;52.084;5.412;2023-05-10T02:15:34;28.00;;;14.20;;
65924;SDS011;66010;52.084;5.412;2023-05-10T02:18:01;27.50;;;13.30;;
65924;SDS011;66010;52.084;5.412;2023-05-10T02:20:28;33.22;;;15.00;;
65924;SDS011;66010;52.084;5.412;2023-05-10T02:22:57;21.63;;;10.82;;
65924;SDS011;66010;52.084;5.412;2023-05-10T02:25:23;30.55;;;14.80;;
65924;SDS011;66010;52.084;5.412;2023-05-10T02:27:52;29.73;;;14.80;;
65924;SDS011;66010;52.084;5.412;2023-05-10T02:30:20;31.10;;;15.40;;
65924;SDS011;66010;52.084;5.412;2023-05-10T02:32:49;33.25;;;15.88;;
65924;SDS011;66010;52.084;5.412;2023-05-10T02:35:16;27.58;;;13.20;;
65924;SDS011;66010;52.084;5.412;2023-05-10T02:37:43;24.40;;;12.82;;
65924;SDS011;66010;52.084;5.412;2023-05-10T02:40:10;32.30;;;16.13;;
65924;SDS011;66010;52.084;5.412;2023-05-10T02:42:37;32.50;;;16.38;;
65924;SDS011;66010;52.084;5.412;2023-05-10T02:45:05;24.45;;;12.13;;
65924;SDS011;66010;52.084;5.412;2023-05-10T02:47:34;30.38;;;14.32;;
65924;SDS011;66010;52.084;5.412;2023-05-10T02:50:00;33.88;;;16.92;;
65924;SDS011;66010;52.084;5.412;2023-05-10T02:52:29;32.38;;;15.57;;
65924;SDS011;66010;52.084;5.412;2023-05-10T02:54:58;40.05;;;17.92;;
65924;SDS011;66010;52.084;5.412;2023-05-10T02:57:27;38.17;;;17.55;;
65924;SDS011;66010;52.084;5.412;2023-05-10T02:59:54;33.25;;;15.38;;
65924;SDS011;66010;52.084;5.412;2023-05-10T03:02:21;34.33;;;15.77;;
65924;SDS011;66010;52.084;5.412;2023-05-10T03:04:48;29.50;;;14.65;;
65924;SDS011;66010;52.084;5.412;2023-05-10T03:07:14;40.20;;;18.00;;
65924;SDS011;66010;52.084;5.412;2023-05-10T03:09:42;32.35;;;15.27;;
65924;SDS011;66010;52.084;5.412;2023-05-10T03:12:13;37.88;;;17.25;;
65924;SDS011;66010;52.084;5.412;2023-05-10T03:17:30;40.10;;;18.05;;
65924;SDS011;66010;52.084;5.412;2023-05-10T03:20:02;43.58;;;19.13;;
65924;SDS011;66010;52.084;5.412;2023-05-10T03:22:34;44.92;;;18.83;;
65924;SDS011;66010;52.084;5.412;2023-05-10T03:25:04;43.05;;;18.98;;
65924;SDS011;66010;52.084;5.412;2023-05-10T03:27:33;43.88;;;19.25;;
65924;SDS011;66010;52.084;5.412;2023-05-10T03:30:00;34.83;;;15.30;;
65924;SDS011;66010;52.084;5.412;2023-05-10T03:32:30;37.83;;;16.42;;
65924;SDS011;66010;52.084;5.412;2023-05-10T03:34:58;34.92;;;15.88;;
65924;SDS011;66010;52.084;5.412;2023-05-10T03:37:25;37.17;;;16.77;;
65924;SDS011;66010;52.084;5.412;2023-05-10T03:39:51;37.30;;;18.00;;
65924;SDS011;66010;52.084;5.412;2023-05-10T03:42:18;40.50;;;17.52;;
65924;SDS011;66010;52.084;5.412;2023-05-10T03:44:44;34.75;;;14.77;;
65924;SDS011;66010;52.084;5.412;2023-05-10T03:47:11;36.40;;;16.77;;
65924;SDS011;66010;52.084;5.412;2023-05-10T03:49:37;34.22;;;15.70;;
65924;SDS011;66010;52.084;5.412;2023-05-10T03:52:04;33.67;;;15.73;;
65924;SDS011;66010;52.084;5.412;2023-05-10T03:54:31;32.63;;;15.98;;
65924;SDS011;66010;52.084;5.412;2023-05-10T03:56:58;33.53;;;15.38;;
65924;SDS011;66010;52.084;5.412;2023-05-10T03:59:28;35.88;;;15.48;;
65924;SDS011;66010;52.084;5.412;2023-05-10T04:01:56;35.08;;;16.33;;
65924;SDS011;66010;52.084;5.412;2023-05-10T04:04:22;38.67;;;16.63;;
65924;SDS011;66010;52.084;5.412;2023-05-10T04:06:49;32.88;;;15.02;;
65924;SDS011;66010;52.084;5.412;2023-05-10T04:09:16;32.60;;;15.30;;
65924;SDS011;66010;52.084;5.412;2023-05-10T04:11:43;37.53;;;16.33;;
65924;SDS011;66010;52.084;5.412;2023-05-10T04:14:09;32.92;;;16.02;;
65924;SDS011;66010;52.084;5.412;2023-05-10T04:16:36;27.65;;;12.38;;
65924;SDS011;66010;52.084;5.412;2023-05-10T04:19:02;31.52;;;15.07;;
65924;SDS011;66010;52.084;5.412;2023-05-10T04:21:29;30.85;;;13.85;;
65924;SDS011;66010;52.084;5.412;2023-05-10T04:23:56;32.28;;;14.75;;
65924;SDS011;66010;52.084;5.412;2023-05-10T04:26:23;29.40;;;13.77;;
65924;SDS011;66010;52.084;5.412;2023-05-10T04:28:51;32.80;;;14.68;;
65924;SDS011;66010;52.084;5.412;2023-05-10T04:31:17;32.92;;;14.40;;
65924;SDS011;66010;52.084;5.412;2023-05-10T04:33:44;36.17;;;15.77;;
65924;SDS011;66010;52.084;5.412;2023-05-10T04:36:10;30.05;;;13.98;;
65924;SDS011;66010;52.084;5.412;2023-05-10T04:38:37;31.75;;;14.38;;
65924;SDS011;66010;52.084;5.412;2023-05-10T04:41:07;31.48;;;14.18;;
65924;SDS011;66010;52.084;5.412;2023-05-10T04:43:34;32.85;;;15.05;;
65924;SDS011;66010;52.084;5.412;2023-05-10T04:46:00;33.55;;;15.32;;
65924;SDS011;66010;52.084;5.412;2023-05-10T04:48:27;34.05;;;15.20;;
65924;SDS011;66010;52.084;5.412;2023-05-10T04:50:53;39.17;;;16.65;;
65924;SDS011;66010;52.084;5.412;2023-05-10T04:53:20;39.88;;;16.77;;
65924;SDS011;66010;52.084;5.412;2023-05-10T04:55:47;39.25;;;16.52;;
65924;SDS011;66010;52.084;5.412;2023-05-10T04:58:14;39.30;;;16.25;;
65924;SDS011;66010;52.084;5.412;2023-05-10T05:00:40;39.22;;;16.58;;
65924;SDS011;66010;52.084;5.412;2023-05-10T05:03:07;38.53;;;16.70;;
65924;SDS011;66010;52.084;5.412;2023-05-10T05:05:34;39.65;;;17.40;;
65924;SDS011;66010;52.084;5.412;2023-05-10T05:08:01;39.53;;;16.80;;
65924;SDS011;66010;52.084;5.412;2023-05-10T05:10:27;41.03;;;17.67;;
65924;SDS011;66010;52.084;5.412;2023-05-10T05:12:53;36.90;;;16.17;;
65924;SDS011;66010;52.084;5.412;2023-05-10T05:15:20;40.97;;;16.90;;
65924;SDS011;66010;52.084;5.412;2023-05-10T05:17:47;38.35;;;16.88;;
65924;SDS011;66010;52.084;5.412;2023-05-10T05:20:13;39.38;;;16.90;;
65924;SDS011;66010;52.084;5.412;2023-05-10T05:22:40;39.55;;;16.70;;
65924;SDS011;66010;52.084;5.412;2023-05-10T05:25:07;45.72;;;17.85;;
65924;SDS011;66010;52.084;5.412;2023-05-10T05:27:33;38.35;;;17.92;;
65924;SDS011;66010;52.084;5.412;2023-05-10T05:30:00;40.20;;;16.90;;
65924;SDS011;66010;52.084;5.412;2023-05-10T05:32:26;38.47;;;16.70;;
65924;SDS011;66010;52.084;5.412;2023-05-10T05:34:53;39.67;;;17.55;;
65924;SDS011;66010;52.084;5.412;2023-05-10T05:37:19;41.05;;;17.08;;
65924;SDS011;66010;52.084;5.412;2023-05-10T05:39:47;41.55;;;18.58;;
65924;SDS011;66010;52.084;5.412;2023-05-10T05:42:13;39.35;;;17.88;;
65924;SDS011;66010;52.084;5.412;2023-05-10T05:44:40;41.92;;;18.42;;
65924;SDS011;66010;52.084;5.412;2023-05-10T05:47:07;46.38;;;18.48;;
65924;SDS011;66010;52.084;5.412;2023-05-10T05:49:33;43.33;;;18.02;;
65924;SDS011;66010;52.084;5.412;2023-05-10T05:52:00;40.78;;;18.80;;
65924;SDS011;66010;52.084;5.412;2023-05-10T05:54:27;42.45;;;17.98;;
65924;SDS011;66010;52.084;5.412;2023-05-10T05:56:57;42.22;;;17.27;;
65924;SDS011;66010;52.084;5.412;2023-05-10T05:59:26;38.65;;;17.75;;
65924;SDS011;66010;52.084;5.412;2023-05-10T06:01:53;38.60;;;17.88;;
65924;SDS011;66010;52.084;5.412;2023-05-10T06:04:20;48.58;;;20.40;;
65924;SDS011;66010;52.084;5.412;2023-05-10T06:06:46;43.72;;;18.98;;
65924;SDS011;66010;52.084;5.412;2023-05-10T06:09:13;28.48;;;12.77;;
65924;SDS011;66010;52.084;5.412;2023-05-10T06:11:39;19.60;;;9.15;;
65924;SDS011;66010;52.084;5.412;2023-05-10T06:14:06;22.27;;;10.30;;
65924;SDS011;66010;52.084;5.412;2023-05-10T06:16:34;18.45;;;9.52;;
65924;SDS011;66010;52.084;5.412;2023-05-10T06:19:00;21.17;;;9.32;;
65924;SDS011;66010;52.084;5.412;2023-05-10T06:21:27;16.48;;;8.60;;
65924;SDS011;66010;52.084;5.412;2023-05-10T06:23:53;17.08;;;7.38;;
65924;SDS011;66010;52.084;5.412;2023-05-10T06:26:20;14.60;;;6.93;;
65924;SDS011;66010;52.084;5.412;2023-05-10T06:28:47;17.58;;;8.20;;
65924;SDS011;66010;52.084;5.412;2023-05-10T06:31:13;13.55;;;7.05;;
65924;SDS011;66010;52.084;5.412;2023-05-10T06:33:40;17.15;;;6.90;;
65924;SDS011;66010;52.084;5.412;2023-05-10T06:36:06;13.68;;;7.25;;
65924;SDS011;66010;52.084;5.412;2023-05-10T06:38:33;13.10;;;6.65;;
65924;SDS011;66010;52.084;5.412;2023-05-10T06:40:59;13.98;;;6.50;;
65924;SDS011;66010;52.084;5.412;2023-05-10T06:43:27;13.55;;;6.20;;
65924;SDS011;66010;52.084;5.412;2023-05-10T06:45:54;11.30;;;6.05;;
65924;SDS011;66010;52.084;5.412;2023-05-10T06:48:21;12.00;;;5.65;;
65924;SDS011;66010;52.084;5.412;2023-05-10T06:50:48;11.65;;;6.03;;
65924;SDS011;66010;52.084;5.412;2023-05-10T06:53:14;12.10;;;5.88;;
65924;SDS011;66010;52.084;5.412;2023-05-10T06:55:41;13.18;;;5.80;;
65924;SDS011;66010;52.084;5.412;2023-05-10T06:58:08;12.57;;;5.72;;
65924;SDS011;66010;52.084;5.412;2023-05-10T07:00:34;10.65;;;5.47;;
65924;SDS011;66010;52.084;5.412;2023-05-10T07:03:01;10.75;;;5.35;;
65924;SDS011;66010;52.084;5.412;2023-05-10T07:05:29;10.50;;;5.15;;
65924;SDS011;66010;52.084;5.412;2023-05-10T07:07:55;11.35;;;5.50;;
65924;SDS011;66010;52.084;5.412;2023-05-10T07:10:22;11.25;;;5.55;;
65924;SDS011;66010;52.084;5.412;2023-05-10T07:12:48;10.32;;;5.03;;
65924;SDS011;66010;52.084;5.412;2023-05-10T07:15:15;9.52;;;4.97;;
65924;SDS011;66010;52.084;5.412;2023-05-10T07:17:42;9.98;;;4.97;;
65924;SDS011;66010;52.084;5.412;2023-05-10T07:20:11;9.63;;;4.75;;
65924;SDS011;66010;52.084;5.412;2023-05-10T07:22:38;8.35;;;4.43;;
65924;SDS011;66010;52.084;5.412;2023-05-10T07:25:04;8.52;;;4.40;;
65924;SDS011;66010;52.084;5.412;2023-05-10T07:27:31;8.75;;;4.55;;
65924;SDS011;66010;52.084;5.412;2023-05-10T07:29:58;10.13;;;4.53;;
65924;SDS011;66010;52.084;5.412;2023-05-10T07:34:52;9.98;;;4.43;;
65924;SDS011;66010;52.084;5.412;2023-05-10T07:37:19;8.95;;;4.30;;
65924;SDS011;66010;52.084;5.412;2023-05-10T07:39:45;9.30;;;4.30;;
65924;SDS011;66010;52.084;5.412;2023-05-10T07:42:12;9.07;;;4.18;;
65924;SDS011;66010;52.084;5.412;2023-05-10T07:44:38;8.70;;;4.30;;
65924;SDS011;66010;52.084;5.412;2023-05-10T07:47:05;8.77;;;4.00;;
65924;SDS011;66010;52.084;5.412;2023-05-10T07:49:31;8.15;;;4.10;;
65924;SDS011;66010;52.084;5.412;2023-05-10T07:52:01;8.70;;;3.80;;
65924;SDS011;66010;52.084;5.412;2023-05-10T07:54:28;8.57;;;4.32;;
65924;SDS011;66010;52.084;5.412;2023-05-10T07:56:55;7.68;;;3.90;;
65924;SDS011;66010;52.084;5.412;2023-05-10T07:59:22;8.27;;;4.00;;
65924;SDS011;66010;52.084;5.412;2023-05-10T08:01:48;7.28;;;3.72;;
65924;SDS011;66010;52.084;5.412;2023-05-10T08:04:15;9.35;;;4.40;;
65924;SDS011;66010;52.084;5.412;2023-05-10T08:06:42;7.75;;;3.85;;
65924;SDS011;66010;52.084;5.412;2023-05-10T08:09:08;8.35;;;3.92;;
65924;SDS011;66010;52.084;5.412;2023-05-10T08:11:35;8.02;;;3.70;;
65924;SDS011;66010;52.084;5.412;2023-05-10T08:14:02;8.50;;;4.15;;
65924;SDS011;66010;52.084;5.412;2023-05-10T08:16:31;8.32;;;3.45;;
65924;SDS011;66010;52.084;5.412;2023-05-10T08:19:03;8.13;;;4.15;;
65924;SDS011;66010;52.084;5.412;2023-05-10T08:21:31;7.38;;;3.80;;
65924;SDS011;66010;52.084;5.412;2023-05-10T08:23:57;8.65;;;4.10;;
65924;SDS011;66010;52.084;5.412;2023-05-10T08:26:24;7.95;;;4.35;;
65924;SDS011;66010;52.084;5.412;2023-05-10T08:28:50;7.63;;;4.03;;
65924;SDS011;66010;52.084;5.412;2023-05-10T08:31:16;7.82;;;3.60;;
65924;SDS011;66010;52.084;5.412;2023-05-10T08:33:44;8.55;;;4.00;;
65924;SDS011;66010;52.084;5.412;2023-05-10T08:36:10;8.35;;;3.85;;
65924;SDS011;66010;52.084;5.412;2023-05-10T08:38:37;7.35;;;3.80;;
65924;SDS011;66010;52.084;5.412;2023-05-10T08:41:04;7.80;;;3.88;;
65924;SDS011;66010;52.084;5.412;2023-05-10T08:43:31;8.35;;;4.10;;
65924;SDS011;66010;52.084;5.412;2023-05-10T08:45:59;7.75;;;3.67;;
65924;SDS011;66010;52.084;5.412;2023-05-10T08:48:29;7.95;;;3.78;;
65924;SDS011;66010;52.084;5.412;2023-05-10T08:50:55;7.25;;;3.65;;
65924;SDS011;66010;52.084;5.412;2023-05-10T08:53:24;8.15;;;3.97;;
65924;SDS011;66010;52.084;5.412;2023-05-10T08:55:52;7.90;;;4.10;;
65924;SDS011;66010;52.084;5.412;2023-05-10T08:58:19;7.60;;;3.58;;
65924;SDS011;66010;52.084;5.412;2023-05-10T09:00:46;9.05;;;3.90;;
65924;SDS011;66010;52.084;5.412;2023-05-10T09:03:13;8.10;;;3.50;;
65924;SDS011;66010;52.084;5.412;2023-05-10T09:05:39;7.32;;;3.58;;
65924;SDS011;66010;52.084;5.412;2023-05-10T09:08:08;8.07;;;3.83;;
65924;SDS011;66010;52.084;5.412;2023-05-10T09:10:34;8.38;;;4.45;;
65924;SDS011;66010;52.084;5.412;2023-05-10T09:13:01;17.38;;;9.07;;
65924;SDS011;66010;52.084;5.412;2023-05-10T09:15:28;17.50;;;10.85;;
65924;SDS011;66010;52.084;5.412;2023-05-10T09:17:55;14.82;;;8.63;;
65924;SDS011;66010;52.084;5.412;2023-05-10T09:20:22;13.90;;;7.38;;
65924;SDS011;66010;52.084;5.412;2023-05-10T09:22:48;10.98;;;5.95;;
65924;SDS011;66010;52.084;5.412;2023-05-10T09:25:16;10.57;;;5.93;;
65924;SDS011;66010;52.084;5.412;2023-05-10T09:27:46;9.77;;;5.28;;
65924;SDS011;66010;52.084;5.412;2023-05-10T09:30:17;10.30;;;5.90;;
65924;SDS011;66010;52.084;5.412;2023-05-10T09:32:44;10.25;;;5.35;;
65924;SDS011;66010;52.084;5.412;2023-05-10T09:35:15;9.48;;;5.25;;
65924;SDS011;66010;52.084;5.412;2023-05-10T09:37:44;10.40;;;5.75;;
65924;SDS011;66010;52.084;5.412;2023-05-10T09:40:13;12.10;;;5.40;;
65924;SDS011;66010;52.084;5.412;2023-05-10T09:42:41;16.10;;;5.20;;
65924;SDS011;66010;52.084;5.412;2023-05-10T09:45:08;10.82;;;5.25;;
65924;SDS011;66010;52.084;5.412;2023-05-10T09:47:35;8.93;;;4.57;;
65924;SDS011;66010;52.084;5.412;2023-05-10T09:50:02;11.43;;;5.10;;
65924;SDS011;66010;52.084;5.412;2023-05-10T09:52:30;11.38;;;4.57;;
65924;SDS011;66010;52.084;5.412;2023-05-10T09:54:57;10.43;;;5.22;;
65924;SDS011;66010;52.084;5.412;2023-05-10T09:57:24;9.10;;;4.97;;
65924;SDS011;66010;52.084;5.412;2023-05-10T09:59:51;8.80;;;4.65;;
65924;SDS011;66010;52.084;5.412;2023-05-10T10:02:20;10.07;;;4.75;;
65924;SDS011;66010;52.084;5.412;2023-05-10T10:04:48;9.15;;;4.53;;
65924;SDS011;66010;52.084;5.412;2023-05-10T10:07:15;10.20;;;4.43;;
65924;SDS011;66010;52.084;5.412;2023-05-10T10:09:48;8.15;;;4.40;;
65924;SDS011;66010;52.084;5.412;2023-05-10T10:12:14;9.82;;;4.70;;
65924;SDS011;66010;52.084;5.412;2023-05-10T10:14:41;8.57;;;4.35;;
65924;SDS011;66010;52.084;5.412;2023-05-10T10:17:07;8.43;;;4.10;;
65924;SDS011;66010;52.084;5.412;2023-05-10T10:19:35;8.80;;;4.05;;
65924;SDS011;66010;52.084;5.412;2023-05-10T10:22:03;7.65;;;3.80;;
65924;SDS011;66010;52.084;5.412;2023-05-10T10:24:39;7.93;;;4.22;;
65924;SDS011;66010;52.084;5.412;2023-05-10T10:32:44;7.97;;;3.63;;
65924;SDS011;66010;52.084;5.412;2023-05-10T10:35:12;7.45;;;3.63;;
65924;SDS011;66010;52.084;5.412;2023-05-10T10:37:43;7.53;;;3.90;;
65924;SDS011;66010;52.084;5.412;2023-05-10T10:40:28;8.48;;;3.78;;
65924;SDS011;66010;52.084;5.412;2023-05-10T10:43:21;7.60;;;3.53;;
65924;SDS011;66010;52.084;5.412;2023-05-10T10:45:48;10.35;;;3.75;;
65924;SDS011;66010;52.084;5.412;2023-05-10T10:48:32;8.00;;;3.70;;
65924;SDS011;66010;52.084;5.412;2023-05-10T10:50:58;8.30;;;3.88;;
65924;SDS011;66010;52.084;5.412;2023-05-10T10:53:28;7.78;;;3.88;;
65924;SDS011;66010;52.084;5.412;2023-05-10T10:56:05;9.45;;;3.92;;
65924;SDS011;66010;52.084;5.412;2023-05-10T10:58:33;9.00;;;4.22;;
65924;SDS011;66010;52.084;5.412;2023-05-10T11:01:11;8.85;;;4.13;;
65924;SDS011;66010;52.084;5.412;2023-05-10T11:03:38;8.32;;;4.32;;
65924;SDS011;66010;52.084;5.412;2023-05-10T11:06:05;8.32;;;4.30;;
65924;SDS011;66010;52.084;5.412;2023-05-10T11:08:32;9.18;;;4.50;;
65924;SDS011;66010;52.084;5.412;2023-05-10T11:11:04;9.35;;;4.53;;
65924;SDS011;66010;52.084;5.412;2023-05-10T11:13:40;8.65;;;4.50;;
65924;SDS011;66010;52.084;5.412;2023-05-10T11:18:33;8.52;;;4.30;;
65924;SDS011;66010;52.084;5.412;2023-05-10T11:21:02;8.77;;;4.20;;
65924;SDS011;66010;52.084;5.412;2023-05-10T11:23:31;8.90;;;4.40;;
65924;SDS011;66010;52.084;5.412;2023-05-10T11:28:25;8.73;;;4.05;;
65924;SDS011;66010;52.084;5.412;2023-05-10T11:30:52;7.50;;;3.90;;
65924;SDS011;66010;52.084;5.412;2023-05-10T11:33:19;8.27;;;3.83;;
65924;SDS011;66010;52.084;5.412;2023-05-10T11:35:46;8.48;;;3.83;;
65924;SDS011;66010;52.084;5.412;2023-05-10T11:38:12;7.75;;;3.60;;
65924;SDS011;66010;52.084;5.412;2023-05-10T11:40:40;8.77;;;3.95;;
65924;SDS011;66010;52.084;5.412;2023-05-10T11:43:07;7.35;;;3.63;;
65924;SDS011;66010;52.084;5.412;2023-05-10T11:45:34;8.23;;;3.40;;
65924;SDS011;66010;52.084;5.412;2023-05-10T11:48:01;8.73;;;3.60;;
65924;SDS011;66010;52.084;5.412;2023-05-10T11:50:29;9.27;;;3.55;;
65924;SDS011;66010;52.084;5.412;2023-05-10T11:52:56;7.57;;;3.50;;
65924;SDS011;66010;52.084;5.412;2023-05-10T11:55:23;9.07;;;3.63;;
65924;SDS011;66010;52.084;5.412;2023-05-10T11:57:54;7.68;;;3.45;;
65924;SDS011;66010;52.084;5.412;2023-05-10T12:00:20;8.77;;;3.72;;
65924;SDS011;66010;52.084;5.412;2023-05-10T12:02:47;7.15;;;3.38;;
65924;SDS011;66010;52.084;5.412;2023-05-10T12:05:15;10.60;;;3.45;;
65924;SDS011;66010;52.084;5.412;2023-05-10T12:07:42;7.82;;;3.20;;
65924;SDS011;66010;52.084;5.412;2023-05-10T12:10:14;8.30;;;3.17;;
65924;SDS011;66010;52.084;5.412;2023-05-10T12:12:46;9.88;;;3.40;;
65924;SDS011;66010;52.084;5.412;2023-05-10T12:15:17;10.10;;;3.72;;
65924;SDS011;66010;52.084;5.412;2023-05-10T12:17:46;9.15;;;3.03;;
65924;SDS011;66010;52.084;5.412;2023-05-10T12:22:45;10.40;;;3.20;;
65924;SDS011;66010;52.084;5.412;2023-05-10T12:25:12;8.43;;;3.35;;
65924;SDS011;66010;52.084;5.412;2023-05-10T12:27:39;8.05;;;3.40;;
65924;SDS011;66010;52.084;5.412;2023-05-10T12:30:07;7.78;;;3.15;;
65924;SDS011;66010;52.084;5.412;2023-05-10T12:32:40;7.05;;;2.80;;
65924;SDS011;66010;52.084;5.412;2023-05-10T12:35:11;9.75;;;3.08;;
65924;SDS011;66010;52.084;5.412;2023-05-10T12:37:38;8.70;;;3.00;;
65924;SDS011;66010;52.084;5.412;2023-05-10T12:40:08;6.85;;;2.83;;
65924;SDS011;66010;52.084;5.412;2023-05-10T12:42:35;6.60;;;3.00;;
65924;SDS011;66010;52.084;5.412;2023-05-10T12:45:02;9.25;;;3.03;;
65924;SDS011;66010;52.084;5.412;2023-05-10T12:47:30;7.55;;;3.10;;
65924;SDS011;66010;52.084;5.412;2023-05-10T12:49:56;6.28;;;2.63;;
65924;SDS011;66010;52.084;5.412;2023-05-10T12:52:23;6.55;;;2.90;;
65924;SDS011;66010;52.084;5.412;2023-05-10T12:54:50;7.75;;;2.65;;
65924;SDS011;66010;52.084;5.412;2023-05-10T12:57:16;7.85;;;2.92;;
65924;SDS011;66010;52.084;5.412;2023-05-10T12:59:43;6.55;;;2.80;;
65924;SDS011;66010;52.084;5.412;2023-05-10T13:02:09;9.82;;;3.17;;
65924;SDS011;66010;52.084;5.412;2023-05-10T13:04:36;6.30;;;2.95;;
65924;SDS011;66010;52.084;5.412;2023-05-10T13:07:06;8.10;;;2.97;;
65924;SDS011;66010;52.084;5.412;2023-05-10T13:09:32;7.32;;;2.90;;
65924;SDS011;66010;52.084;5.412;2023-05-10T13:11:59;7.30;;;2.78;;
65924;SDS011;66010;52.084;5.412;2023-05-10T13:14:26;6.88;;;3.05;;
65924;SDS011;66010;52.084;5.412;2023-05-10T13:16:52;6.50;;;2.72;;
65924;SDS011;66010;52.084;5.412;2023-05-10T13:19:19;6.03;;;2.70;;
65924;SDS011;66010;52.084;5.412;2023-05-10T13:21:46;9.25;;;3.10;;
65924;SDS011;66010;52.084;5.412;2023-05-10T13:24:13;7.57;;;2.90;;
65924;SDS011;66010;52.084;5.412;2023-05-10T13:26:40;6.43;;;2.75;;
65924;SDS011;66010;52.084;5.412;2023-05-10T13:29:07;7.00;;;2.85;;
65924;SDS011;66010;52.084;5.412;2023-05-10T13:31:33;6.25;;;2.70;;
65924;SDS011;66010;52.084;5.412;2023-05-10T13:34:00;6.13;;;2.80;;
65924;SDS011;66010;52.084;5.412;2023-05-10T13:36:27;5.63;;;2.63;;
65924;SDS011;66010;52.084;5.412;2023-05-10T13:38:54;6.10;;;2.60;;
65924;SDS011;66010;52.084;5.412;2023-05-10T13:41:21;7.90;;;2.80;;
65924;SDS011;66010;52.084;5.412;2023-05-10T13:43:47;5.95;;;2.60;;
65924;SDS011;66010;52.084;5.412;2023-05-10T13:46:15;6.00;;;2.60;;
65924;SDS011;66010;52.084;5.412;2023-05-10T13:48:43;6.22;;;2.50;;
65924;SDS011;66010;52.084;5.412;2023-05-10T13:51:09;6.90;;;2.53;;
65924;SDS011;66010;52.084;5.412;2023-05-10T13:53:36;6.70;;;2.80;;
65924;SDS011;66010;52.084;5.412;2023-05-10T13:56:02;7.05;;;2.90;;
65924;SDS011;66010;52.084;5.412;2023-05-10T13:58:29;6.03;;;2.35;;
65924;SDS011;66010;52.084;5.412;2023-05-10T14:00:55;6.00;;;2.58;;
65924;SDS011;66010;52.084;5.412;2023-05-10T14:03:22;5.80;;;2.80;;
65924;SDS011;66010;52.084;5.412;2023-05-10T14:05:48;7.20;;;2.90;;
65924;SDS011;66010;52.084;5.412;2023-05-10T14:08:15;5.85;;;2.35;;
65924;SDS011;66010;52.084;5.412;2023-05-10T14:10:41;6.05;;;2.63;;
65924;SDS011;66010;52.084;5.412;2023-05-10T14:13:08;6.35;;;2.72;;
65924;SDS011;66010;52.084;5.412;2023-05-10T14:15:34;7.05;;;2.83;;
65924;SDS011;66010;52.084;5.412;2023-05-10T14:18:01;5.00;;;2.30;;
65924;SDS011;66010;52.084;5.412;2023-05-10T14:20:27;8.27;;;2.90;;
65924;SDS011;66010;52.084;5.412;2023-05-10T14:22:54;6.70;;;2.60;;
65924;SDS011;66010;52.084;5.412;2023-05-10T14:25:21;7.03;;;2.70;;
65924;SDS011;66010;52.084;5.412;2023-05-10T14:27:47;6.18;;;2.60;;
65924;SDS011;66010;52.084;5.412;2023-05-10T14:30:14;6.85;;;2.53;;
65924;SDS011;66010;52.084;5.412;2023-05-10T14:32:41;6.68;;;2.88;;
65924;SDS011;66010;52.084;5.412;2023-05-10T14:35:07;6.68;;;2.65;;
65924;SDS011;66010;52.084;5.412;2023-05-10T14:37:38;7.90;;;2.70;;
65924;SDS011;66010;52.084;5.412;2023-05-10T14:40:05;8.88;;;2.50;;
65924;SDS011;66010;52.084;5.412;2023-05-10T14:42:32;6.15;;;2.50;;
65924;SDS011;66010;52.084;5.412;2023-05-10T14:44:59;6.63;;;2.25;;
65924;SDS011;66010;52.084;5.412;2023-05-10T14:47:25;6.50;;;2.65;;
65924;SDS011;66010;52.084;5.412;2023-05-10T14:49:52;7.63;;;2.60;;
65924;SDS011;66010;52.084;5.412;2023-05-10T14:52:18;6.03;;;2.30;;
65924;SDS011;66010;52.084;5.412;2023-05-10T14:54:45;6.05;;;2.10;;
65924;SDS011;66010;52.084;5.412;2023-05-10T14:57:11;10.00;;;2.30;;
65924;SDS011;66010;52.084;5.412;2023-05-10T14:59:38;7.18;;;2.35;;
65924;SDS011;66010;52.084;5.412;2023-05-10T15:02:05;8.00;;;2.80;;
65924;SDS011;66010;52.084;5.412;2023-05-10T15:04:32;5.88;;;2.28;;
65924;SDS011;66010;52.084;5.412;2023-05-10T15:06:59;7.35;;;2.55;;
65924;SDS011;66010;52.084;5.412;2023-05-10T15:09:26;7.60;;;2.55;;
65924;SDS011;66010;52.084;5.412;2023-05-10T15:11:54;6.65;;;2.22;;